sensor_id;sensor_type;location;lat;lon;timestamp;temperature;humidity
44863;DHT22;30597;49.628;10.850;2023-09-08T00:00:51;23.10;59.70
44863;DHT22;30597;49.628;10.850;2023-09-08T00:03:16;23.20;59.90
44863;DHT22;30597;49.628;10.850;2023-09-08T00:05:42;23.10;59.70
44863;DHT22;30597;49.628;10.850;2023-09-08T00:08:07;23.10;59.70
44863;DHT22;30597;49.628;10.850;2023-09-08T00:10:33;23.10;59.70
44863;DHT22;30597;49.628;10.850;2023-09-08T00:12:58;23.10;59.80
44863;DHT22;30597;49.628;10.850;2023-09-08T00:15:24;23.00;59.70
44863;DHT22;30597;49.628;10.850;2023-09-08T00:17:50;23.00;59.80
44863;DHT22;30597;49.628;10.850;2023-09-08T00:20:15;23.00;59.80
44863;DHT22;30597;49.628;10.850;2023-09-08T00:22:41;23.00;59.80
44863;DHT22;30597;49.628;10.850;2023-09-08T00:25:07;23.00;60.00
44863;DHT22;30597;49.628;10.850;2023-09-08T00:27:32;23.00;60.00
44863;DHT22;30597;49.628;10.850;2023-09-08T00:29:58;23.00;60.00
44863;DHT22;30597;49.628;10.850;2023-09-08T00:32:24;23.00;60.00
44863;DHT22;30597;49.628;10.850;2023-09-08T00:34:49;23.00;60.00
44863;DHT22;30597;49.628;10.850;2023-09-08T00:37:15;23.00;60.00
44863;DHT22;30597;49.628;10.850;2023-09-08T00:39:40;23.00;60.00
44863;DHT22;30597;49.628;10.850;2023-09-08T00:42:06;23.00;60.10
44863;DHT22;30597;49.628;10.850;2023-09-08T00:44:32;23.00;60.10
44863;DHT22;30597;49.628;10.850;2023-09-08T00:46:58;23.00;60.10
44863;DHT22;30597;49.628;10.850;2023-09-08T00:49:24;23.00;60.10
44863;DHT22;30597;49.628;10.850;2023-09-08T00:51:49;22.90;60.00
44863;DHT22;30597;49.628;10.850;2023-09-08T00:54:16;22.90;60.20
44863;DHT22;30597;49.628;10.850;2023-09-08T00:56:42;22.90;60.00
44863;DHT22;30597;49.628;10.850;2023-09-08T00:59:07;22.90;60.30
44863;DHT22;30597;49.628;10.850;2023-09-08T01:01:33;22.90;60.10
44863;DHT22;30597;49.628;10.850;2023-09-08T01:04:00;22.90;60.20
44863;DHT22;30597;49.628;10.850;2023-09-08T01:06:26;22.90;60.30
44863;DHT22;30597;49.628;10.850;2023-09-08T01:08:53;22.90;60.40
44863;DHT22;30597;49.628;10.850;2023-09-08T01:11:20;22.90;60.40
44863;DHT22;30597;49.628;10.850;2023-09-08T01:13:46;22.90;60.40
44863;DHT22;30597;49.628;10.850;2023-09-08T01:16:11;22.90;60.30
44863;DHT22;30597;49.628;10.850;2023-09-08T01:18:37;22.90;60.30
44863;DHT22;30597;49.628;10.850;2023-09-08T01:26:48;22.80;60.40
44863;DHT22;30597;49.628;10.850;2023-09-08T01:29:15;22.80;60.40
44863;DHT22;30597;49.628;10.850;2023-09-08T01:31:41;22.80;60.40
44863;DHT22;30597;49.628;10.850;2023-09-08T01:34:08;22.80;60.40
44863;DHT22;30597;49.628;10.850;2023-09-08T01:36:34;22.80;60.50
44863;DHT22;30597;49.628;10.850;2023-09-08T01:39:01;22.80;60.50
44863;DHT22;30597;49.628;10.850;2023-09-08T01:41:26;22.80;60.60
44863;DHT22;30597;49.628;10.850;2023-09-08T01:43:52;22.80;60.50
44863;DHT22;30597;49.628;10.850;2023-09-08T01:46:17;22.80;60.60
44863;DHT22;30597;49.628;10.850;2023-09-08T01:48:43;22.80;60.50
44863;DHT22;30597;49.628;10.850;2023-09-08T01:51:09;22.80;60.60
44863;DHT22;30597;49.628;10.850;2023-09-08T01:53:34;22.80;60.60
44863;DHT22;30597;49.628;10.850;2023-09-08T01:56:00;22.90;60.80
44863;DHT22;30597;49.628;10.850;2023-09-08T01:58:26;22.70;60.60
44863;DHT22;30597;49.628;10.850;2023-09-08T02:00:51;22.70;60.60
44863;DHT22;30597;49.628;10.850;2023-09-08T02:03:17;22.70;60.60
44863;DHT22;30597;49.628;10.850;2023-09-08T02:05:43;22.70;60.50
44863;DHT22;30597;49.628;10.850;2023-09-08T02:08:09;22.70;60.80
44863;DHT22;30597;49.628;10.850;2023-09-08T02:10:35;22.70;60.70
44863;DHT22;30597;49.628;10.850;2023-09-08T02:13:00;22.70;60.60
44863;DHT22;30597;49.628;10.850;2023-09-08T02:15:26;22.70;60.70
44863;DHT22;30597;49.628;10.850;2023-09-08T02:17:56;22.70;60.70
44863;DHT22;30597;49.628;10.850;2023-09-08T02:20:22;22.70;60.70
44863;DHT22;30597;49.628;10.850;2023-09-08T02:22:49;22.70;60.70
44863;DHT22;30597;49.628;10.850;2023-09-08T02:25:15;22.70;61.00
44863;DHT22;30597;49.628;10.850;2023-09-08T02:27:41;22.70;60.80
44863;DHT22;30597;49.628;10.850;2023-09-08T02:30:06;22.70;60.90
44863;DHT22;30597;49.628;10.850;2023-09-08T02:32:32;22.70;60.90
44863;DHT22;30597;49.628;10.850;2023-09-08T02:34:58;22.70;60.90
44863;DHT22;30597;49.628;10.850;2023-09-08T02:37:23;22.70;60.90
44863;DHT22;30597;49.628;10.850;2023-09-08T02:39:49;22.70;60.90
44863;DHT22;30597;49.628;10.850;2023-09-08T02:42:14;22.70;60.90
44863;DHT22;30597;49.628;10.850;2023-09-08T02:44:40;22.60;60.90
44863;DHT22;30597;49.628;10.850;2023-09-08T02:47:05;22.70;61.00
44863;DHT22;30597;49.628;10.850;2023-09-08T02:49:31;22.60;60.90
44863;DHT22;30597;49.628;10.850;2023-09-08T02:51:57;22.60;60.90
44863;DHT22;30597;49.628;10.850;2023-09-08T02:54:23;22.60;61.00
44863;DHT22;30597;49.628;10.850;2023-09-08T02:56:48;22.60;61.00
44863;DHT22;30597;49.628;10.850;2023-09-08T02:59:14;22.60;61.00
44863;DHT22;30597;49.628;10.850;2023-09-08T03:01:39;22.70;61.10
44863;DHT22;30597;49.628;10.850;2023-09-08T03:04:05;22.60;61.10
44863;DHT22;30597;49.628;10.850;2023-09-08T03:06:31;22.60;61.10
44863;DHT22;30597;49.628;10.850;2023-09-08T03:08:58;22.60;61.10
44863;DHT22;30597;49.628;10.850;2023-09-08T03:11:24;22.60;61.00
44863;DHT22;30597;49.628;10.850;2023-09-08T03:13:49;22.60;61.20
44863;DHT22;30597;49.628;10.850;2023-09-08T03:16:15;22.60;61.10
44863;DHT22;30597;49.628;10.850;2023-09-08T03:18:41;22.60;61.10
44863;DHT22;30597;49.628;10.850;2023-09-08T03:21:07;22.60;61.10
44863;DHT22;30597;49.628;10.850;2023-09-08T03:23:40;22.60;61.20
44863;DHT22;30597;49.628;10.850;2023-09-08T03:26:07;22.60;61.30
44863;DHT22;30597;49.628;10.850;2023-09-08T03:28:34;22.60;61.40
44863;DHT22;30597;49.628;10.850;2023-09-08T03:31:01;22.60;61.40
44863;DHT22;30597;49.628;10.850;2023-09-08T03:33:27;22.50;61.20
44863;DHT22;30597;49.628;10.850;2023-09-08T03:35:52;22.50;61.10
44863;DHT22;30597;49.628;10.850;2023-09-08T03:38:18;22.60;61.20
44863;DHT22;30597;49.628;10.850;2023-09-08T03:40:43;22.50;61.10
44863;DHT22;30597;49.628;10.850;2023-09-08T03:43:09;22.50;61.10
44863;DHT22;30597;49.628;10.850;2023-09-08T03:45:35;22.50;61.20
44863;DHT22;30597;49.628;10.850;2023-09-08T03:48:01;22.50;61.20
44863;DHT22;30597;49.628;10.850;2023-09-08T03:50:26;22.50;61.30
44863;DHT22;30597;49.628;10.850;2023-09-08T03:52:52;22.50;61.20
44863;DHT22;30597;49.628;10.850;2023-09-08T03:55:19;22.50;61.30
44863;DHT22;30597;49.628;10.850;2023-09-08T03:57:44;22.50;61.40
44863;DHT22;30597;49.628;10.850;2023-09-08T04:00:10;22.50;61.30
44863;DHT22;30597;49.628;10.850;2023-09-08T04:02:36;22.50;61.30
44863;DHT22;30597;49.628;10.850;2023-09-08T04:05:02;22.50;61.40
44863;DHT22;30597;49.628;10.850;2023-09-08T04:07:28;22.50;61.50
44863;DHT22;30597;49.628;10.850;2023-09-08T04:09:53;22.60;61.40
44863;DHT22;30597;49.628;10.850;2023-09-08T04:12:19;22.40;61.30
44863;DHT22;30597;49.628;10.850;2023-09-08T04:14:44;22.40;61.40
44863;DHT22;30597;49.628;10.850;2023-09-08T04:17:10;22.40;61.40
44863;DHT22;30597;49.628;10.850;2023-09-08T04:19:35;22.40;61.40
44863;DHT22;30597;49.628;10.850;2023-09-08T04:22:01;22.40;61.50
44863;DHT22;30597;49.628;10.850;2023-09-08T04:24:26;22.40;61.40
44863;DHT22;30597;49.628;10.850;2023-09-08T04:26:52;22.40;61.50
44863;DHT22;30597;49.628;10.850;2023-09-08T04:29:19;22.40;61.60
44863;DHT22;30597;49.628;10.850;2023-09-08T04:31:44;22.40;61.50
44863;DHT22;30597;49.628;10.850;2023-09-08T04:34:10;22.40;61.50
44863;DHT22;30597;49.628;10.850;2023-09-08T04:36:35;22.40;61.50
44863;DHT22;30597;49.628;10.850;2023-09-08T04:39:01;22.40;61.50
44863;DHT22;30597;49.628;10.850;2023-09-08T04:41:26;22.30;61.40
44863;DHT22;30597;49.628;10.850;2023-09-08T04:43:52;22.30;61.50
44863;DHT22;30597;49.628;10.850;2023-09-08T04:46:18;22.50;61.70
44863;DHT22;30597;49.628;10.850;2023-09-08T04:48:43;22.30;61.50
44863;DHT22;30597;49.628;10.850;2023-09-08T04:51:09;22.30;61.50
44863;DHT22;30597;49.628;10.850;2023-09-08T04:53:34;22.40;61.70
44863;DHT22;30597;49.628;10.850;2023-09-08T04:56:01;22.30;61.50
44863;DHT22;30597;49.628;10.850;2023-09-08T04:58:27;22.30;61.40
44863;DHT22;30597;49.628;10.850;2023-09-08T05:00:52;22.30;61.40
44863;DHT22;30597;49.628;10.850;2023-09-08T05:03:18;22.30;61.60
44863;DHT22;30597;49.628;10.850;2023-09-08T05:05:44;22.30;61.50
44863;DHT22;30597;49.628;10.850;2023-09-08T05:08:10;22.30;61.50
44863;DHT22;30597;49.628;10.850;2023-09-08T05:10:35;22.30;61.60
44863;DHT22;30597;49.628;10.850;2023-09-08T05:13:01;22.30;61.50
44863;DHT22;30597;49.628;10.850;2023-09-08T05:15:26;22.30;61.70
44863;DHT22;30597;49.628;10.850;2023-09-08T05:17:52;22.30;61.70
44863;DHT22;30597;49.628;10.850;2023-09-08T05:20:18;22.30;61.60
44863;DHT22;30597;49.628;10.850;2023-09-08T05:22:43;22.30;61.60
44863;DHT22;30597;49.628;10.850;2023-09-08T05:25:09;22.30;61.80
44863;DHT22;30597;49.628;10.850;2023-09-08T05:27:35;22.30;61.70
44863;DHT22;30597;49.628;10.850;2023-09-08T05:30:00;22.30;61.70
44863;DHT22;30597;49.628;10.850;2023-09-08T05:32:26;22.20;61.60
44863;DHT22;30597;49.628;10.850;2023-09-08T05:34:51;22.30;61.80
44863;DHT22;30597;49.628;10.850;2023-09-08T05:37:17;22.30;61.70
44863;DHT22;30597;49.628;10.850;2023-09-08T05:39:42;22.20;61.70
44863;DHT22;30597;49.628;10.850;2023-09-08T05:42:08;22.20;61.60
44863;DHT22;30597;49.628;10.850;2023-09-08T05:44:33;22.20;61.70
44863;DHT22;30597;49.628;10.850;2023-09-08T05:46:59;22.20;61.70
44863;DHT22;30597;49.628;10.850;2023-09-08T05:49:24;22.20;61.60
44863;DHT22;30597;49.628;10.850;2023-09-08T05:51:50;22.20;62.50
44863;DHT22;30597;49.628;10.850;2023-09-08T05:54:16;22.20;61.70
44863;DHT22;30597;49.628;10.850;2023-09-08T05:56:41;22.20;61.60
44863;DHT22;30597;49.628;10.850;2023-09-08T05:59:07;22.20;61.60
44863;DHT22;30597;49.628;10.850;2023-09-08T06:01:32;22.20;61.70
44863;DHT22;30597;49.628;10.850;2023-09-08T06:03:58;22.20;61.70
44863;DHT22;30597;49.628;10.850;2023-09-08T06:06:24;22.20;61.60
44863;DHT22;30597;49.628;10.850;2023-09-08T06:08:50;22.20;61.80
44863;DHT22;30597;49.628;10.850;2023-09-08T06:11:16;22.20;61.60
44863;DHT22;30597;49.628;10.850;2023-09-08T06:13:41;22.20;61.60
44863;DHT22;30597;49.628;10.850;2023-09-08T06:16:07;22.20;61.80
44863;DHT22;30597;49.628;10.850;2023-09-08T06:18:33;22.20;61.60
44863;DHT22;30597;49.628;10.850;2023-09-08T06:21:05;22.20;61.70
44863;DHT22;30597;49.628;10.850;2023-09-08T06:23:31;22.20;61.90
44863;DHT22;30597;49.628;10.850;2023-09-08T06:25:57;22.20;61.70
44863;DHT22;30597;49.628;10.850;2023-09-08T06:28:29;22.20;61.80
44863;DHT22;30597;49.628;10.850;2023-09-08T06:30:54;22.20;61.80
44863;DHT22;30597;49.628;10.850;2023-09-08T06:33:20;22.20;61.60
44863;DHT22;30597;49.628;10.850;2023-09-08T06:35:47;22.20;61.70
44863;DHT22;30597;49.628;10.850;2023-09-08T06:38:13;22.20;61.70
44863;DHT22;30597;49.628;10.850;2023-09-08T06:40:39;22.20;61.60
44863;DHT22;30597;49.628;10.850;2023-09-08T06:43:04;22.20;61.60
44863;DHT22;30597;49.628;10.850;2023-09-08T06:45:30;22.20;61.50
44863;DHT22;30597;49.628;10.850;2023-09-08T06:47:55;22.20;61.50
44863;DHT22;30597;49.628;10.850;2023-09-08T06:50:22;22.20;61.60
44863;DHT22;30597;49.628;10.850;2023-09-08T06:52:51;22.20;62.40
44863;DHT22;30597;49.628;10.850;2023-09-08T06:55:17;22.30;61.70
44863;DHT22;30597;49.628;10.850;2023-09-08T06:57:44;22.20;61.60
44863;DHT22;30597;49.628;10.850;2023-09-08T07:00:10;22.30;61.50
44863;DHT22;30597;49.628;10.850;2023-09-08T07:02:37;22.20;61.50
44863;DHT22;30597;49.628;10.850;2023-09-08T07:05:03;22.20;61.50
44863;DHT22;30597;49.628;10.850;2023-09-08T07:07:33;22.30;61.50
44863;DHT22;30597;49.628;10.850;2023-09-08T07:09:59;22.30;61.60
44863;DHT22;30597;49.628;10.850;2023-09-08T07:12:25;22.30;61.40
44863;DHT22;30597;49.628;10.850;2023-09-08T07:14:50;22.30;61.40
44863;DHT22;30597;49.628;10.850;2023-09-08T07:17:16;22.30;61.40
44863;DHT22;30597;49.628;10.850;2023-09-08T07:19:41;22.30;61.40
44863;DHT22;30597;49.628;10.850;2023-09-08T07:22:07;22.30;61.40
44863;DHT22;30597;49.628;10.850;2023-09-08T07:24:32;22.30;61.40
44863;DHT22;30597;49.628;10.850;2023-09-08T07:26:58;22.30;61.30
44863;DHT22;30597;49.628;10.850;2023-09-08T07:29:23;22.30;61.30
44863;DHT22;30597;49.628;10.850;2023-09-08T07:31:49;22.30;61.20
44863;DHT22;30597;49.628;10.850;2023-09-08T07:34:14;22.30;61.20
44863;DHT22;30597;49.628;10.850;2023-09-08T07:36:40;22.30;61.90
44863;DHT22;30597;49.628;10.850;2023-09-08T07:39:05;22.30;61.10
44863;DHT22;30597;49.628;10.850;2023-09-08T07:41:31;22.30;61.10
44863;DHT22;30597;49.628;10.850;2023-09-08T07:43:57;22.30;61.10
44863;DHT22;30597;49.628;10.850;2023-09-08T07:46:22;22.30;61.00
44863;DHT22;30597;49.628;10.850;2023-09-08T07:48:48;22.40;61.10
44863;DHT22;30597;49.628;10.850;2023-09-08T07:51:13;22.40;61.00
44863;DHT22;30597;49.628;10.850;2023-09-08T07:53:39;22.30;60.90
44863;DHT22;30597;49.628;10.850;2023-09-08T07:56:04;22.40;61.00
44863;DHT22;30597;49.628;10.850;2023-09-08T07:58:30;22.40;61.00
44863;DHT22;30597;49.628;10.850;2023-09-08T08:00:55;22.40;61.00
44863;DHT22;30597;49.628;10.850;2023-09-08T08:03:21;22.40;60.80
44863;DHT22;30597;49.628;10.850;2023-09-08T08:05:46;22.40;60.90
44863;DHT22;30597;49.628;10.850;2023-09-08T08:08:12;22.50;60.90
44863;DHT22;30597;49.628;10.850;2023-09-08T08:10:37;22.50;60.80
44863;DHT22;30597;49.628;10.850;2023-09-08T08:13:03;22.50;60.70
44863;DHT22;30597;49.628;10.850;2023-09-08T08:15:40;22.50;60.60
44863;DHT22;30597;49.628;10.850;2023-09-08T08:18:06;22.50;60.80
44863;DHT22;30597;49.628;10.850;2023-09-08T08:20:32;22.60;60.60
44863;DHT22;30597;49.628;10.850;2023-09-08T08:23:01;22.60;60.70
44863;DHT22;30597;49.628;10.850;2023-09-08T08:25:27;22.50;60.50
44863;DHT22;30597;49.628;10.850;2023-09-08T08:27:53;22.60;60.50
44863;DHT22;30597;49.628;10.850;2023-09-08T08:30:19;22.60;60.40
44863;DHT22;30597;49.628;10.850;2023-09-08T08:32:44;22.60;60.40
44863;DHT22;30597;49.628;10.850;2023-09-08T08:35:11;22.60;60.30
44863;DHT22;30597;49.628;10.850;2023-09-08T08:37:39;22.60;60.20
44863;DHT22;30597;49.628;10.850;2023-09-08T08:40:05;22.60;60.30
44863;DHT22;30597;49.628;10.850;2023-09-08T08:42:32;22.60;60.30
44863;DHT22;30597;49.628;10.850;2023-09-08T08:45:00;22.70;60.40
44863;DHT22;30597;49.628;10.850;2023-09-08T08:47:27;22.60;60.20
44863;DHT22;30597;49.628;10.850;2023-09-08T08:49:56;22.70;60.10
44863;DHT22;30597;49.628;10.850;2023-09-08T08:52:24;22.70;60.10
44863;DHT22;30597;49.628;10.850;2023-09-08T08:54:50;22.70;60.10
44863;DHT22;30597;49.628;10.850;2023-09-08T08:57:16;22.70;59.90
44863;DHT22;30597;49.628;10.850;2023-09-08T08:59:42;22.70;59.90
44863;DHT22;30597;49.628;10.850;2023-09-08T09:02:09;22.80;59.90
44863;DHT22;30597;49.628;10.850;2023-09-08T09:04:37;22.80;59.90
44863;DHT22;30597;49.628;10.850;2023-09-08T09:07:03;22.80;59.90
44863;DHT22;30597;49.628;10.850;2023-09-08T09:09:30;22.80;59.90
44863;DHT22;30597;49.628;10.850;2023-09-08T09:11:56;22.80;59.80
44863;DHT22;30597;49.628;10.850;2023-09-08T09:14:21;22.80;59.70
44863;DHT22;30597;49.628;10.850;2023-09-08T09:16:49;22.80;59.80
44863;DHT22;30597;49.628;10.850;2023-09-08T09:19:32;22.80;59.70
44863;DHT22;30597;49.628;10.850;2023-09-08T09:22:00;22.90;59.60
44863;DHT22;30597;49.628;10.850;2023-09-08T09:24:36;22.90;59.60
44863;DHT22;30597;49.628;10.850;2023-09-08T09:27:07;22.90;59.70
44863;DHT22;30597;49.628;10.850;2023-09-08T09:29:33;22.90;59.70
44863;DHT22;30597;49.628;10.850;2023-09-08T09:32:05;22.90;59.70
44863;DHT22;30597;49.628;10.850;2023-09-08T09:34:32;22.90;59.60
44863;DHT22;30597;49.628;10.850;2023-09-08T09:36:57;22.90;59.50
44863;DHT22;30597;49.628;10.850;2023-09-08T09:39:24;23.00;59.80
44863;DHT22;30597;49.628;10.850;2023-09-08T09:41:57;23.00;59.90
44863;DHT22;30597;49.628;10.850;2023-09-08T09:44:24;23.00;59.70
44863;DHT22;30597;49.628;10.850;2023-09-08T09:46:52;23.00;60.00
44863;DHT22;30597;49.628;10.850;2023-09-08T09:49:18;23.00;59.80
44863;DHT22;30597;49.628;10.850;2023-09-08T09:51:48;23.00;59.80
44863;DHT22;30597;49.628;10.850;2023-09-08T09:54:15;23.00;59.90
44863;DHT22;30597;49.628;10.850;2023-09-08T09:56:41;23.00;59.90
44863;DHT22;30597;49.628;10.850;2023-09-08T09:59:12;23.00;60.00
44863;DHT22;30597;49.628;10.850;2023-09-08T10:01:38;23.00;60.00
44863;DHT22;30597;49.628;10.850;2023-09-08T10:04:05;22.90;59.90
44863;DHT22;30597;49.628;10.850;2023-09-08T10:06:32;23.00;60.00
44863;DHT22;30597;49.628;10.850;2023-09-08T10:09:03;23.00;60.00
44863;DHT22;30597;49.628;10.850;2023-09-08T10:11:34;22.90;60.10
44863;DHT22;30597;49.628;10.850;2023-09-08T10:14:01;23.00;60.00
44863;DHT22;30597;49.628;10.850;2023-09-08T10:16:28;23.00;60.10
44863;DHT22;30597;49.628;10.850;2023-09-08T10:18:58;23.00;60.30
44863;DHT22;30597;49.628;10.850;2023-09-08T10:21:26;22.90;60.00
44863;DHT22;30597;49.628;10.850;2023-09-08T10:24:18;23.00;60.00
44863;DHT22;30597;49.628;10.850;2023-09-08T10:26:55;23.00;59.90
44863;DHT22;30597;49.628;10.850;2023-09-08T10:29:22;22.90;59.90
44863;DHT22;30597;49.628;10.850;2023-09-08T10:31:49;23.00;60.10
44863;DHT22;30597;49.628;10.850;2023-09-08T10:34:15;22.90;59.80
44863;DHT22;30597;49.628;10.850;2023-09-08T10:36:42;23.00;60.00
44863;DHT22;30597;49.628;10.850;2023-09-08T10:39:27;23.00;59.80
44863;DHT22;30597;49.628;10.850;2023-09-08T10:47:12;23.00;59.90
44863;DHT22;30597;49.628;10.850;2023-09-08T10:49:40;23.00;59.90
44863;DHT22;30597;49.628;10.850;2023-09-08T10:52:08;22.90;59.70
44863;DHT22;30597;49.628;10.850;2023-09-08T10:54:44;23.00;59.80
44863;DHT22;30597;49.628;10.850;2023-09-08T10:57:14;23.00;59.60
44863;DHT22;30597;49.628;10.850;2023-09-08T10:59:45;23.00;59.60
44863;DHT22;30597;49.628;10.850;2023-09-08T11:02:39;23.00;59.60
44863;DHT22;30597;49.628;10.850;2023-09-08T11:05:13;23.00;59.50
44863;DHT22;30597;49.628;10.850;2023-09-08T11:07:41;23.00;59.60
44863;DHT22;30597;49.628;10.850;2023-09-08T11:10:08;23.00;59.60
44863;DHT22;30597;49.628;10.850;2023-09-08T11:12:34;23.00;59.60
44863;DHT22;30597;49.628;10.850;2023-09-08T11:15:04;23.00;60.00
44863;DHT22;30597;49.628;10.850;2023-09-08T11:17:31;23.00;59.40
44863;DHT22;30597;49.628;10.850;2023-09-08T11:19:57;23.00;59.40
44863;DHT22;30597;49.628;10.850;2023-09-08T11:22:25;23.00;59.30
44863;DHT22;30597;49.628;10.850;2023-09-08T11:24:56;23.00;59.40
44863;DHT22;30597;49.628;10.850;2023-09-08T11:27:27;23.10;59.30
44863;DHT22;30597;49.628;10.850;2023-09-08T11:29:53;23.00;59.30
44863;DHT22;30597;49.628;10.850;2023-09-08T11:32:18;23.00;59.00
44863;DHT22;30597;49.628;10.850;2023-09-08T11:34:44;23.10;58.90
44863;DHT22;30597;49.628;10.850;2023-09-08T11:37:14;23.00;59.10
44863;DHT22;30597;49.628;10.850;2023-09-08T11:39:44;23.10;59.20
44863;DHT22;30597;49.628;10.850;2023-09-08T11:42:12;23.10;59.30
44863;DHT22;30597;49.628;10.850;2023-09-08T11:44:39;23.10;59.20
44863;DHT22;30597;49.628;10.850;2023-09-08T11:47:07;23.00;58.90
44863;DHT22;30597;49.628;10.850;2023-09-08T11:49:40;23.10;59.00
44863;DHT22;30597;49.628;10.850;2023-09-08T11:52:06;23.10;59.10
44863;DHT22;30597;49.628;10.850;2023-09-08T11:54:34;23.10;59.00
44863;DHT22;30597;49.628;10.850;2023-09-08T11:57:01;23.10;59.00
44863;DHT22;30597;49.628;10.850;2023-09-08T11:59:33;23.10;59.10
44863;DHT22;30597;49.628;10.850;2023-09-08T12:01:59;23.10;58.90
44863;DHT22;30597;49.628;10.850;2023-09-08T12:04:25;23.10;59.00
44863;DHT22;30597;49.628;10.850;2023-09-08T12:06:52;23.10;58.90
44863;DHT22;30597;49.628;10.850;2023-09-08T12:09:20;23.10;58.90
44863;DHT22;30597;49.628;10.850;2023-09-08T12:11:46;23.10;58.90
44863;DHT22;30597;49.628;10.850;2023-09-08T12:14:14;23.10;58.90
44863;DHT22;30597;49.628;10.850;2023-09-08T12:16:41;23.10;58.90
44863;DHT22;30597;49.628;10.850;2023-09-08T12:19:07;23.10;59.00
44863;DHT22;30597;49.628;10.850;2023-09-08T12:21:54;23.10;58.70
44863;DHT22;30597;49.628;10.850;2023-09-08T12:24:43;23.10;58.90
44863;DHT22;30597;49.628;10.850;2023-09-08T12:27:06;23.10;58.90
44863;DHT22;30597;49.628;10.850;2023-09-08T12:29:31;23.10;58.80
44863;DHT22;30597;49.628;10.850;2023-09-08T12:31:57;23.10;58.70
44863;DHT22;30597;49.628;10.850;2023-09-08T12:34:23;23.10;58.90
44863;DHT22;30597;49.628;10.850;2023-09-08T12:36:48;23.10;58.80
44863;DHT22;30597;49.628;10.850;2023-09-08T12:39:14;23.10;58.90
44863;DHT22;30597;49.628;10.850;2023-09-08T12:41:39;23.10;58.90
44863;DHT22;30597;49.628;10.850;2023-09-08T12:44:05;23.10;58.90
44863;DHT22;30597;49.628;10.850;2023-09-08T12:46:30;23.10;58.80
44863;DHT22;30597;49.628;10.850;2023-09-08T12:48:57;23.10;58.90
44863;DHT22;30597;49.628;10.850;2023-09-08T12:51:22;23.10;58.80
44863;DHT22;30597;49.628;10.850;2023-09-08T12:53:48;23.10;58.80
44863;DHT22;30597;49.628;10.850;2023-09-08T12:56:13;23.10;58.80
44863;DHT22;30597;49.628;10.850;2023-09-08T12:58:39;23.10;58.80
44863;DHT22;30597;49.628;10.850;2023-09-08T13:01:04;23.10;58.70
44863;DHT22;30597;49.628;10.850;2023-09-08T13:03:32;23.10;58.80
44863;DHT22;30597;49.628;10.850;2023-09-08T13:05:57;23.20;58.80
44863;DHT22;30597;49.628;10.850;2023-09-08T13:08:23;23.10;58.80
44863;DHT22;30597;49.628;10.850;2023-09-08T13:10:48;23.10;58.80
44863;DHT22;30597;49.628;10.850;2023-09-08T13:13:14;23.10;58.80
44863;DHT22;30597;49.628;10.850;2023-09-08T13:15:39;23.10;58.70
44863;DHT22;30597;49.628;10.850;2023-09-08T13:18:05;23.10;58.70
44863;DHT22;30597;49.628;10.850;2023-09-08T13:20:30;23.10;58.70
44863;DHT22;30597;49.628;10.850;2023-09-08T13:22:56;23.20;58.70
44863;DHT22;30597;49.628;10.850;2023-09-08T13:25:21;23.10;58.80
44863;DHT22;30597;49.628;10.850;2023-09-08T13:27:47;23.10;58.50
44863;DHT22;30597;49.628;10.850;2023-09-08T13:30:14;23.10;58.70
44863;DHT22;30597;49.628;10.850;2023-09-08T13:32:40;23.20;58.80
44863;DHT22;30597;49.628;10.850;2023-09-08T13:35:06;23.20;58.70
44863;DHT22;30597;49.628;10.850;2023-09-08T13:37:33;23.20;58.70
44863;DHT22;30597;49.628;10.850;2023-09-08T13:40:03;23.20;58.70
44863;DHT22;30597;49.628;10.850;2023-09-08T13:42:29;23.10;58.50
44863;DHT22;30597;49.628;10.850;2023-09-08T13:44:54;23.10;58.60
44863;DHT22;30597;49.628;10.850;2023-09-08T13:47:20;23.20;58.70
44863;DHT22;30597;49.628;10.850;2023-09-08T13:49:46;23.10;58.50
44863;DHT22;30597;49.628;10.850;2023-09-08T13:52:11;23.10;58.60
44863;DHT22;30597;49.628;10.850;2023-09-08T13:54:37;23.10;58.60
44863;DHT22;30597;49.628;10.850;2023-09-08T13:57:04;23.20;58.70
44863;DHT22;30597;49.628;10.850;2023-09-08T13:59:30;23.20;58.60
44863;DHT22;30597;49.628;10.850;2023-09-08T14:01:56;23.20;58.60
44863;DHT22;30597;49.628;10.850;2023-09-08T14:04:26;23.20;58.60
44863;DHT22;30597;49.628;10.850;2023-09-08T14:06:53;23.10;58.50
44863;DHT22;30597;49.628;10.850;2023-09-08T14:09:18;23.20;58.70
44863;DHT22;30597;49.628;10.850;2023-09-08T14:11:44;23.10;58.50
44863;DHT22;30597;49.628;10.850;2023-09-08T14:14:10;23.20;58.60
44863;DHT22;30597;49.628;10.850;2023-09-08T14:16:35;23.20;58.60
44863;DHT22;30597;49.628;10.850;2023-09-08T14:19:01;23.20;58.60
44863;DHT22;30597;49.628;10.850;2023-09-08T14:21:26;23.20;58.70
44863;DHT22;30597;49.628;10.850;2023-09-08T14:23:52;23.20;58.60
44863;DHT22;30597;49.628;10.850;2023-09-08T14:26:17;23.20;58.60
44863;DHT22;30597;49.628;10.850;2023-09-08T14:28:45;23.20;58.70
44863;DHT22;30597;49.628;10.850;2023-09-08T14:31:10;23.20;58.60
44863;DHT22;30597;49.628;10.850;2023-09-08T14:33:36;23.20;58.60
44863;DHT22;30597;49.628;10.850;2023-09-08T14:36:02;23.20;58.60
44863;DHT22;30597;49.628;10.850;2023-09-08T14:38:28;23.20;58.60
44863;DHT22;30597;49.628;10.850;2023-09-08T14:40:58;23.20;58.60
44863;DHT22;30597;49.628;10.850;2023-09-08T14:43:25;23.20;58.60
44863;DHT22;30597;49.628;10.850;2023-09-08T14:45:51;23.20;58.50
44863;DHT22;30597;49.628;10.850;2023-09-08T14:48:17;23.20;59.20
44863;DHT22;30597;49.628;10.850;2023-09-08T14:50:43;23.20;58.50
44863;DHT22;30597;49.628;10.850;2023-09-08T14:53:09;23.20;58.50
44863;DHT22;30597;49.628;10.850;2023-09-08T14:55:35;23.30;58.50
44863;DHT22;30597;49.628;10.850;2023-09-08T14:58:00;23.20;58.60
44863;DHT22;30597;49.628;10.850;2023-09-08T15:00:26;23.20;58.50
44863;DHT22;30597;49.628;10.850;2023-09-08T15:02:51;23.30;58.60
44863;DHT22;30597;49.628;10.850;2023-09-08T15:05:17;23.20;58.50
44863;DHT22;30597;49.628;10.850;2023-09-08T15:07:42;23.30;58.50
44863;DHT22;30597;49.628;10.850;2023-09-08T15:10:09;23.20;58.50
44863;DHT22;30597;49.628;10.850;2023-09-08T15:12:35;23.20;58.50
44863;DHT22;30597;49.628;10.850;2023-09-08T15:15:00;23.20;58.40
44863;DHT22;30597;49.628;10.850;2023-09-08T15:17:26;23.30;58.50
44863;DHT22;30597;49.628;10.850;2023-09-08T15:19:51;23.30;58.50
44863;DHT22;30597;49.628;10.850;2023-09-08T15:22:17;23.20;58.40